Halltown, WV (25423)

12:59 AM EST on December 11, 2016 (GMT -0500)
Breckenridge | | Change Station

Elev 439 ft 39.31 °N, 77.83 °W | Updated 14 minutes ago

Mostly Cloudy
Mostly Cloudy
22.2 °F
Feels Like 22 °F
N
0.0
Wind Variable Wind from WSW
Gusts 0.0 mph

Today
High -- | Low -- °F
--% Chance of Precip.
Yesterday
High -- | Low -- °F
Precip. -- in
Pressure 30.51 in
Visibility 10.0 miles
Clouds Clear
Windchill 22 °F
Dew Point 17 °F
Humidity 79%
Rainfall 0.00 in
Snow Depth Not available.
7:21 AM 4:48 PM
Waxing Gibbous, 89% visible
METAR KMRB 110553Z AUTO 00000KT 10SM CLR M05/M10 A3049 RMK AO2 SLP332 T10501100 11028 21056 58005 TSNO
Pressure 30.51 in
Visibility 10.0 miles
Clouds Clear
Windchill 22 °F
Dew Point 17 °F
Humidity 79%
Rainfall 0.00 in
Snow Depth Not available.
7:21 AM 4:48 PM
Waxing Gibbous, 89% visible
METAR KMRB 110553Z AUTO 00000KT 10SM CLR M05/M10 A3049 RMK AO2 SLP332 T10501100 11028 21056 58005 TSNO

10-Day Weather Forecast

Almanac

Astronomy

Dec. 11, 2016 Rise Set
Actual Time
Civil Twilight
Nautical Twilight
Astronomical Twilight
Moon
Length of Visible Light
Length of Day
Tomorrow will be .
, % of the Moon is Illuminated

Today's Extremes

State Highs State Lows

Community

WunderPhotos

Upload Photos

1,956,706 photos uploaded!

WunderBlog® & News

Nearby

Air Quality

  Air Quality AQ Index Pollutant
Not available.

Snow Depth

Station Depth Elevation

Earthquake Activity

City Distance Mag. Time & Date
Minimum magnitude displayed is 2.5.

Coastal Water Temperatures

Place Temperature

Stations

Nearby Weather Stations

Station Location Temp. Windchill Dew Point Humidity Wind Precip. Elev Updated Type
                   

Watches & Warnings

There are currently no watches in effect.